WEATHER

Warnervale Skycam

North West View

North West View

South West View

South West View

Sydney Airport Forecast

  • YSSY TAF

    TAF YSSY 191111Z 1912/2018 20008KT 9999 -DZ SCT010 BKN018 FM192200 18008KT 9999 BKN020 FM200000 14012KT 9999 BKN025 FM200900 10008KT 9999 -SHRA BKN018 INTER 2014/2018 5000 SHRA BKN015 RMK T 22 22 21 23 Q 1021 1020 1019 1020

  • YSSY METAR

    TTF METAR YSSY 191130Z 16009KT 9999 FEW016 BKN020 22/18 Q1021 RMK RF00.0/000.0 NOSIG

All information provided on this page is for general information and should NOT be used for flight planning.